In Rescue
 
Open Full Screen Window  High Contrast Mode
Wind Gusting 00 knots
05
June 22, 2024 7:48 PM CDT
Weather Information
Wind Direction
  340 °
Wind Speed
  05 kt (6 mph)
Wind Gust
  00 kt (0 mph)
Altimeter
29.85 in
Visibility
10 SM
Temperature
20° C
68° F
Dewpoint
17° C
63° F
Humidity
83%
Sky Condition
Overcast @ 3,100 ft
Scattered @ 2,600 ft
Scattered @ 1,700 ft
VFR

METAR KBBB 230048Z AUTO 34005KT 10SM SCT017 SCT026 OVC031 20/17 A2985 RMK AO2

FAA Disclaimer: The data displayed is for advisory purposes only and is not to be used for flight planning or operations.